AirNav   Pilot Hours Calculator
 
 1435 users online  

8FD4 Wuesthoff Hospital Emergency Heliport
Rockledge, Florida, USA

GOING TO ROCKLEDGE?


FAA INFORMATION EFFECTIVE 07 NOVEMBER 2019

Location

FAA Identifier: 8FD4
Lat/Long: 28-20-04.9100N 080-43-24.0600W
28-20.081833N 080-43.401000W
28.3346972,-80.7233500
(estimated)
Elevation: 100 ft. / 30 m (estimated)
Variation: 04W (1990)
Time zone: UTC -5 (UTC -4 during Daylight Saving Time)
Zip code: 32955

Heliport Operations

Heliport use: Private use, MEDICAL USE.
Activation date: 04/1993
Control tower: no
ARTCC: JACKSONVILLE CENTER
FSS: SAINT PETERSBURG FLIGHT SERVICE STATION
Attendance: UNATNDD
Segmented circle: no
Lights: FOR PERIMETER LGTS CALL 407-636-2211.

Heliport Communications

WX AWOS-3 at COI (2.0 nm E): 119.025 (321-986-8864)
WX AWOS-3PT at TIX (12 nm N): 120.625 (321-567-6090)
WX ASOS at MLB (15 nm S): PHONE 321-951-7575
WX AWOS-3 at X21 (18 nm N): 119.725 (321-385-0384)

Nearby radio navigation aids

VOR radial/distance  VOR name  Freq  Var
MLBr348/14.5MELBOURNE VOR/DME110.0007W
ORLr111/34.6ORLANDO VORTAC112.2000E

Heliport Services

Runway Information

Helipad H1

Dimensions: 69 x 69 ft. / 21 x 21 m
Surface: asphalt, in good condition
Runway edge lights: PERI
Latitude: 28-20.081833N
Longitude: 080-43.401000W
Elevation: 100.0 ft.
Traffic pattern: leftleft

Heliport Ownership and Management from official FAA records

Ownership: Privately-owned
Owner: STEWARD ROCKLEDGE HOSPITAL INC
110 LONGWOOD AVE.
ROCKLEDGE, FL 32955
Phone 407-636-2211
Manager: CLARENCE WHIPPLE
110 LONGWOOD AVE.
ROCKLEDGE, FL 32955
Phone 407-636-2211

Additional Remarks

FOR CD CTC ORLANDO APCH AT 407-852-7553.

Instrument Procedures

There are no published instrument procedures at 8FD4.

Some nearby airports with instrument procedures:

KCOI - Merritt Island Airport (2 nm E)
KCOF - Patrick Air Force Base (8 nm SE)
KXMR - Cape Canaveral Air Force Station Skid Strip (11 nm NE)
KTIX - Space Coast Regional Airport (12 nm N)
KMLB - Melbourne International Airport (15 nm S)
KTTS - NASA Shuttle Landing Facility (17 nm N)
X21 - Arthur Dunn Air Park (18 nm N)
 
Loc | Ops | Rwys | IFR | FBO | Links
Com | Nav | Svcs | Stats | Notes


 
Area around 8FD4 (Wuesthoff Hospital Emergency Heliport)
 
Road maps at: MapQuest Bing Google
 
Aerial photo
No photo
 
Sectional chart

 
Airport distance calculator
Flying to Wuesthoff Hospital Emergency Heliport? Find the distance to fly.

From to 8FD4

Sunrise and sunset
Times for 19-Nov-2019
 Local
(UTC-5)
 Zulu
(UTC)
Morning civil twilight06:2411:24
Sunrise06:4911:49
Sunset17:2722:27
Evening civil twilight17:5222:52

Current date and time
Zulu (UTC)  19-Nov-2019 18:51:39
Local (UTC-5)  19-Nov-2019 13:51:39
 
METAR
KCOF 
10nm SE 
191756Z AUTO 30012KT 10SM CLR 23/11 A2993 RMK AO2 SLP140 T02250106 10225 20149 57007 $
KTIX 
11nm N 
191747Z 27007G16KT 7SM SCT042 23/09 A2995
KXMR 
13nm NE 
191756Z AUTO 29012KT 10SM SCT045 21/08 A2993 RMK AO2 SLP138 T02100083 10216 20105 58005 $
KMLB 
15nm S 
191753Z 28016G20KT 10SM SCT055 22/11 A2994 RMK AO2 SLP137 T02220111 10228 20122 53007
KTTS 
17nm N 
191756Z AUTO 29010KT 10SM CLR 21/09 A2993 RMK AO2 SLP140 T02060092 10207 20135 58006 FZRANO $
TAF
KCOF 
10nm SE 
191100Z 1911/2017 30009KT 9999 FEW040 QNH2985INS BECMG 1917/1918 29010G15KT 9999 FEW030 SCT180 QNH2988INS BECMG 2002/2003 VRB06KT 9999 SKC QNH3004INS TX22/1919Z TN14/2011Z
KTIX 
11nm N 
191757Z 1918/2018 27007G16KT P6SM SCT040 FM192300 29006KT P6SM FEW250 FM201500 33006KT P6SM FEW040
KMLB 
15nm S 
191757Z 1918/2018 29011KT P6SM SKC FM192300 29006KT P6SM FEW250 FM201500 33006KT P6SM FEW040
NOTAMs
Click for the latest NOTAMs
NOTAMs are issued by the DoD/FAA and will open in a separate window not controlled by AirNav.

 

 
 

Would you like to see your business listed on this page?

 If your business provides an interesting product or service to pilots, flight crews, aircraft, or users of the Wuesthoff Hospital Emergency Heliport, you should consider listing it here.  To start the listing process, click on the button below
 
Add a business
 

Other Pages about Wuesthoff Hospital Emergency Heliport

Update a link
 
Copyright © AirNav, LLC. All rights reserved. Privacy Policy  Contact